createdAt,value
2023-08-29T00:00:58.029Z,55.19
2023-08-29T00:01:58.077Z,53.02
2023-08-29T00:02:58.111Z,44.77
2023-08-29T00:03:58.048Z,51.55
2023-08-29T00:04:58.074Z,54.06
2023-08-29T00:05:57.990Z,53.84
2023-08-29T00:06:58.010Z,44.54
2023-08-29T00:07:58.001Z,51.47
2023-08-29T00:08:57.967Z,55.37
2023-08-29T00:09:57.969Z,58.10
2023-08-29T00:10:57.950Z,59.22
2023-08-29T00:11:57.966Z,51.19
2023-08-29T00:12:57.960Z,49.13
2023-08-29T00:13:57.931Z,49.26
2023-08-29T00:14:57.924Z,44.35
2023-08-29T00:15:57.920Z,50.38
2023-08-29T00:16:57.928Z,52.47
2023-08-29T00:17:57.982Z,51.28
2023-08-29T00:18:57.891Z,52.14
2023-08-29T00:19:57.884Z,43.12
2023-08-29T00:20:57.880Z,49.86
2023-08-29T00:21:57.906Z,54.68
2023-08-29T00:22:57.862Z,50.51
2023-08-29T00:23:57.884Z,52.91
2023-08-29T00:24:57.857Z,44.74
2023-08-29T00:25:57.840Z,51.09
2023-08-29T00:26:57.858Z,41.93
2023-08-29T00:27:57.836Z,59.28
2023-08-29T00:28:57.814Z,46.63
2023-08-29T00:29:57.804Z,56.04
2023-08-29T00:30:57.807Z,54.24
2023-08-29T00:31:57.862Z,52.88
2023-08-29T00:32:57.834Z,56.82
2023-08-29T00:33:57.773Z,58.27
2023-08-29T00:34:57.769Z,49.43
2023-08-29T00:35:57.761Z,46.43
2023-08-29T00:36:57.777Z,50.11
2023-08-29T00:37:57.750Z,51.92
2023-08-29T00:38:57.740Z,49.78
2023-08-29T00:39:57.732Z,50.03
2023-08-29T00:40:57.749Z,49.30
2023-08-29T00:41:57.739Z,56.64
2023-08-29T00:42:57.703Z,42.15
2023-08-29T00:43:57.701Z,50.86
2023-08-29T00:44:57.687Z,46.24
2023-08-29T00:45:57.768Z,55.39
2023-08-29T00:46:57.695Z,54.54
2023-08-29T00:47:57.737Z,46.73
2023-08-29T00:48:57.666Z,55.55
2023-08-29T00:49:57.651Z,41.86
2023-08-29T00:50:57.670Z,48.48
2023-08-29T00:51:57.632Z,50.92
2023-08-29T00:52:57.628Z,53.00
2023-08-29T00:53:57.619Z,54.26
2023-08-29T00:54:57.627Z,59.05
2023-08-29T00:55:57.632Z,61.77
2023-08-29T00:56:57.598Z,42.96
2023-08-29T00:57:57.624Z,60.29
2023-08-29T00:58:57.581Z,62.86
2023-08-29T00:59:57.595Z,52.32
2023-08-29T01:00:57.588Z,52.40
2023-08-29T01:01:57.553Z,55.49
2023-08-29T01:02:57.580Z,52.19
2023-08-29T01:03:57.598Z,43.57
2023-08-29T01:04:57.561Z,52.98
2023-08-29T01:05:57.528Z,49.88
2023-08-29T01:06:57.526Z,50.16
2023-08-29T01:07:57.512Z,46.37
2023-08-29T01:08:57.500Z,59.70
2023-08-29T01:09:57.520Z,50.18
2023-08-29T01:10:57.490Z,41.70
2023-08-29T01:11:57.478Z,52.23
2023-08-29T01:12:57.472Z,56.07
2023-08-29T01:13:57.493Z,45.46
2023-08-29T01:14:57.482Z,39.17
2023-08-29T01:15:57.469Z,53.79
2023-08-29T01:16:57.440Z,40.26
2023-08-29T01:17:57.490Z,49.77
2023-08-29T01:18:57.444Z,47.38
2023-08-29T01:19:57.422Z,47.50
2023-08-29T01:20:57.408Z,57.07
2023-08-29T01:21:57.391Z,49.30
2023-08-29T01:23:08.179Z,46.16
2023-08-29T01:23:59.407Z,48.70
2023-08-29T01:24:57.377Z,62.64
2023-08-29T01:25:57.364Z,53.69
2023-08-29T01:26:57.353Z,46.41
2023-08-29T01:27:57.345Z,51.66
2023-08-29T01:28:57.374Z,47.24
2023-08-29T01:29:57.348Z,52.50
2023-08-29T01:30:57.381Z,50.94
2023-08-29T01:31:57.317Z,44.35
2023-08-29T01:32:57.360Z,49.95
2023-08-29T01:33:57.333Z,44.59
2023-08-29T01:34:57.308Z,58.61
2023-08-29T01:35:57.285Z,47.61
2023-08-29T01:36:57.276Z,48.06
2023-08-29T01:37:57.292Z,50.95
2023-08-29T01:38:57.265Z,41.72
2023-08-29T01:39:57.266Z,51.09
2023-08-29T01:40:57.244Z,53.43
2023-08-29T01:41:57.240Z,57.96
2023-08-29T01:42:57.253Z,45.52
2023-08-29T01:43:57.219Z,44.13
2023-08-29T01:44:57.254Z,53.81
2023-08-29T01:45:57.274Z,42.95
2023-08-29T01:46:57.210Z,46.01
2023-08-29T01:47:57.241Z,38.79
2023-08-29T01:48:57.182Z,41.03
2023-08-29T01:49:57.176Z,40.66
2023-08-29T01:50:57.174Z,56.53
2023-08-29T01:51:57.186Z,47.88
2023-08-29T01:52:57.177Z,43.33
2023-08-29T01:53:57.153Z,54.12
2023-08-29T01:54:57.140Z,48.38
2023-08-29T01:55:57.124Z,54.64
2023-08-29T01:56:57.160Z,49.81
2023-08-29T01:57:57.121Z,42.00
2023-08-29T01:58:57.108Z,44.75
2023-08-29T01:59:57.096Z,48.99
2023-08-29T02:00:58.344Z,49.89
2023-08-29T02:01:57.121Z,44.27
2023-08-29T02:02:57.093Z,40.69
2023-08-29T02:03:57.066Z,46.88
2023-08-29T02:04:57.056Z,51.10
2023-08-29T02:05:57.052Z,51.89
2023-08-29T02:06:57.062Z,49.13
2023-08-29T02:07:57.047Z,58.19
2023-08-29T02:08:57.021Z,47.02
2023-08-29T02:09:57.013Z,48.09
2023-08-29T02:10:57.029Z,41.63
2023-08-29T02:11:57.021Z,41.78
2023-08-29T02:12:56.997Z,54.17
2023-08-29T02:13:56.983Z,41.61
2023-08-29T02:14:56.978Z,49.42
2023-08-29T02:15:56.998Z,42.78
2023-08-29T02:16:57.036Z,51.58
2023-08-29T02:17:56.985Z,38.94
2023-08-29T02:18:56.945Z,48.37
2023-08-29T02:19:56.935Z,48.95
2023-08-29T02:20:56.961Z,41.17
2023-08-29T02:21:56.919Z,39.49
2023-08-29T02:22:56.913Z,57.74
2023-08-29T02:23:56.898Z,52.00
2023-08-29T02:24:56.894Z,53.02
2023-08-29T02:25:56.918Z,55.08
2023-08-29T02:26:56.894Z,46.98
2023-08-29T02:27:56.867Z,54.77
2023-08-29T02:28:57.857Z,54.00
2023-08-29T02:29:56.879Z,56.29
2023-08-29T02:30:56.916Z,55.71
2023-08-29T02:31:56.840Z,51.59
2023-08-29T02:32:56.867Z,42.02
2023-08-29T02:33:56.845Z,44.92
2023-08-29T02:34:56.834Z,55.06
2023-08-29T02:35:56.802Z,50.38
2023-08-29T02:36:56.814Z,56.60
2023-08-29T02:37:56.791Z,48.72
2023-08-29T02:38:56.785Z,56.72
2023-08-29T02:39:56.799Z,43.88
2023-08-29T02:40:56.762Z,54.55
2023-08-29T02:41:56.760Z,52.16
2023-08-29T02:42:56.750Z,50.06
2023-08-29T02:43:56.740Z,54.44
2023-08-29T02:44:56.758Z,55.42
2023-08-29T02:45:56.725Z,55.63
2023-08-29T02:46:56.720Z,45.70
2023-08-29T02:47:56.769Z,54.84
2023-08-29T02:48:56.728Z,49.20
2023-08-29T02:49:56.725Z,49.20
2023-08-29T02:50:56.697Z,55.06
2023-08-29T02:51:56.682Z,49.18
2023-08-29T02:52:56.668Z,55.53
2023-08-29T02:53:56.688Z,46.34
2023-08-29T02:54:56.666Z,53.47
2023-08-29T02:55:56.644Z,44.25
2023-08-29T02:56:56.645Z,48.56
2023-08-29T02:57:56.634Z,48.61
2023-08-29T02:58:56.652Z,54.57
2023-08-29T02:59:56.617Z,57.93
2023-08-29T03:00:56.614Z,55.25
2023-08-29T03:01:56.598Z,50.37
2023-08-29T03:02:56.754Z,60.84
2023-08-29T03:03:56.721Z,59.78
2023-08-29T03:04:56.590Z,60.79
2023-08-29T03:05:56.570Z,54.65
2023-08-29T03:06:56.561Z,52.58
2023-08-29T03:07:56.625Z,47.94
2023-08-29T03:08:56.550Z,58.69
2023-08-29T03:09:56.551Z,60.74
2023-08-29T03:10:56.532Z,48.17
2023-08-29T03:11:56.526Z,52.28
2023-08-29T03:12:56.533Z,60.11
2023-08-29T03:13:56.503Z,56.62
2023-08-29T03:14:56.500Z,54.82
2023-08-29T03:15:56.503Z,49.41
2023-08-29T03:16:56.486Z,60.52
2023-08-29T03:17:56.540Z,61.15
2023-08-29T03:18:56.463Z,54.29
2023-08-29T03:19:56.464Z,55.90
2023-08-29T03:20:56.445Z,50.27
2023-08-29T03:21:56.462Z,51.42
2023-08-29T03:22:56.470Z,61.94
2023-08-29T03:23:56.427Z,57.07
2023-08-29T03:24:56.417Z,53.22
2023-08-29T03:25:56.409Z,52.35
2023-08-29T03:26:56.432Z,58.31
2023-08-29T03:27:56.393Z,59.43
2023-08-29T03:28:56.384Z,61.14
2023-08-29T03:29:56.389Z,59.32
2023-08-29T03:30:56.370Z,54.81
2023-08-29T03:31:56.399Z,58.72
2023-08-29T03:32:56.395Z,56.48
2023-08-29T03:33:56.349Z,56.93
2023-08-29T03:34:56.352Z,56.58
2023-08-29T03:35:56.358Z,59.58
2023-08-29T03:36:56.351Z,54.57
2023-08-29T03:37:56.316Z,53.05
2023-08-29T03:38:56.309Z,60.27
2023-08-29T03:39:56.311Z,51.98
2023-08-29T03:40:56.319Z,55.81
2023-08-29T03:41:56.289Z,60.67
2023-08-29T03:42:56.281Z,56.12
2023-08-29T03:43:56.278Z,55.46
2023-08-29T03:44:56.267Z,50.69
2023-08-29T03:45:56.303Z,59.05
2023-08-29T03:46:56.258Z,62.71
2023-08-29T03:47:56.271Z,58.26
2023-08-29T03:48:56.247Z,52.65
2023-08-29T03:49:56.230Z,61.23
2023-08-29T03:50:56.263Z,56.26
2023-08-29T03:51:56.222Z,59.35
2023-08-29T03:52:56.212Z,57.41
2023-08-29T03:53:56.203Z,59.68
2023-08-29T03:54:56.219Z,65.15
2023-08-29T03:55:56.210Z,56.44
2023-08-29T03:56:56.183Z,46.75
2023-08-29T03:57:56.174Z,56.89
2023-08-29T03:58:56.164Z,58.62
2023-08-29T03:59:56.189Z,61.75
2023-08-29T04:00:56.156Z,53.56
2023-08-29T04:01:56.141Z,53.71
2023-08-29T04:02:56.193Z,62.42
2023-08-29T04:03:56.253Z,56.90
2023-08-29T04:04:56.240Z,55.84
2023-08-29T04:05:56.129Z,59.12
2023-08-29T04:06:56.102Z,51.83
2023-08-29T04:07:56.088Z,61.14
2023-08-29T04:08:56.088Z,49.29
2023-08-29T04:09:56.111Z,53.24
2023-08-29T04:10:56.090Z,62.12
2023-08-29T04:11:56.071Z,58.26
2023-08-29T04:12:56.079Z,58.68
2023-08-29T04:13:56.089Z,58.54
2023-08-29T04:14:56.064Z,51.75
2023-08-29T04:15:56.042Z,57.57
2023-08-29T04:16:56.022Z,60.40
2023-08-29T04:17:56.072Z,55.82
2023-08-29T04:18:56.040Z,55.52
2023-08-29T04:19:56.007Z,64.82
2023-08-29T04:20:56.004Z,61.19
2023-08-29T04:21:55.985Z,54.76
2023-08-29T04:22:55.977Z,58.77
2023-08-29T04:23:55.995Z,61.36
2023-08-29T04:24:55.968Z,59.64
2023-08-29T04:25:55.947Z,56.43
2023-08-29T04:26:55.969Z,59.08
2023-08-29T04:27:55.944Z,60.59
2023-08-29T04:28:55.966Z,55.66
2023-08-29T04:29:55.940Z,61.71
2023-08-29T04:30:55.912Z,58.15
2023-08-29T04:31:56.915Z,59.44
2023-08-29T04:32:55.921Z,55.97
2023-08-29T04:33:55.911Z,64.39
2023-08-29T04:34:55.880Z,58.86
2023-08-29T04:35:55.876Z,58.53
2023-08-29T04:36:55.868Z,58.45
2023-08-29T04:37:55.972Z,63.57
2023-08-29T04:38:55.882Z,58.78
2023-08-29T04:39:55.850Z,55.59
2023-08-29T04:40:55.835Z,54.92
2023-08-29T04:41:55.838Z,63.64
2023-08-29T04:42:55.842Z,63.86
2023-08-29T04:43:55.819Z,57.36
2023-08-29T04:44:55.804Z,56.83
2023-08-29T04:45:55.824Z,59.03
2023-08-29T04:46:55.795Z,64.28
2023-08-29T04:47:55.872Z,53.59
2023-08-29T04:48:55.779Z,60.56
2023-08-29T04:49:55.766Z,56.69
2023-08-29T04:50:55.760Z,64.33
2023-08-29T04:51:55.755Z,63.11
2023-08-29T04:52:55.778Z,57.96
2023-08-29T04:53:55.730Z,56.38
2023-08-29T04:54:55.737Z,61.68
2023-08-29T04:55:55.723Z,61.08
2023-08-29T04:56:55.711Z,56.05
2023-08-29T04:57:55.746Z,58.86
2023-08-29T04:58:55.694Z,62.66
2023-08-29T04:59:55.680Z,59.27
2023-08-29T05:00:55.700Z,56.67
2023-08-29T05:01:55.694Z,58.45
2023-08-29T05:02:55.777Z,63.35
2023-08-29T05:03:55.660Z,54.72
2023-08-29T05:04:55.660Z,57.90
2023-08-29T05:05:55.640Z,57.57
2023-08-29T05:06:55.659Z,54.65
2023-08-29T05:07:55.624Z,54.81
2023-08-29T05:08:55.621Z,59.54
2023-08-29T05:09:55.671Z,61.14
2023-08-29T05:10:55.609Z,54.86
2023-08-29T05:11:55.612Z,58.85
2023-08-29T05:12:55.593Z,59.10
2023-08-29T05:13:55.578Z,64.69
2023-08-29T05:14:55.575Z,55.65
2023-08-29T05:15:55.625Z,57.50
2023-08-29T05:16:55.579Z,58.05
2023-08-29T05:17:55.797Z,57.02
2023-08-29T05:18:55.533Z,64.09
2023-08-29T05:19:55.543Z,57.47
2023-08-29T05:20:56.045Z,56.06
2023-08-29T05:21:56.515Z,56.94
2023-08-29T05:22:55.510Z,60.34
2023-08-29T05:23:55.535Z,64.09
2023-08-29T05:24:55.492Z,55.63
2023-08-29T05:25:55.510Z,59.69
2023-08-29T05:26:55.484Z,58.46
2023-08-29T05:27:55.481Z,57.74
2023-08-29T05:28:55.482Z,62.17
2023-08-29T05:29:55.457Z,54.96
2023-08-29T05:30:55.577Z,57.62
2023-08-29T05:31:55.437Z,56.35
2023-08-29T05:32:55.516Z,63.46
2023-08-29T05:33:55.429Z,60.81
2023-08-29T05:34:55.412Z,55.32
2023-08-29T05:35:55.442Z,60.04
2023-08-29T05:36:55.408Z,56.48
2023-08-29T05:37:55.398Z,63.59
2023-08-29T05:38:55.395Z,54.87
2023-08-29T05:39:55.437Z,55.40
2023-08-29T05:40:55.381Z,57.39
2023-08-29T05:41:56.380Z,63.80
2023-08-29T05:42:55.368Z,53.60
2023-08-29T05:43:55.372Z,54.79
2023-08-29T05:44:55.382Z,56.77
2023-08-29T05:45:56.969Z,59.74
2023-08-29T05:46:56.373Z,61.55
2023-08-29T05:47:55.341Z,56.46
2023-08-29T05:48:55.308Z,60.32
2023-08-29T05:49:55.320Z,57.62
2023-08-29T05:50:55.302Z,63.49
2023-08-29T05:51:55.300Z,60.79
2023-08-29T05:52:55.272Z,57.52
2023-08-29T05:53:55.301Z,60.97
2023-08-29T05:54:55.288Z,56.25
2023-08-29T05:55:55.254Z,64.39
2023-08-29T05:56:55.249Z,54.19
2023-08-29T05:57:55.244Z,57.16
2023-08-29T05:58:55.249Z,56.44
2023-08-29T05:59:55.216Z,58.16
2023-08-29T06:00:55.227Z,62.09
2023-08-29T06:01:55.198Z,57.85
2023-08-29T06:02:55.277Z,58.69
2023-08-29T06:03:55.274Z,50.50
2023-08-29T06:04:55.180Z,65.09
2023-08-29T06:05:55.173Z,59.18
2023-08-29T06:06:55.168Z,54.72
2023-08-29T06:08:08.905Z,55.77
2023-08-29T06:08:57.164Z,62.72
2023-08-29T06:09:55.137Z,64.49
2023-08-29T06:10:55.126Z,62.76
2023-08-29T06:11:55.131Z,54.60
2023-08-29T06:12:55.143Z,63.43
2023-08-29T06:13:55.127Z,62.60
2023-08-29T06:14:55.093Z,56.51
2023-08-29T06:15:55.090Z,51.11
2023-08-29T06:16:55.104Z,61.98
2023-08-29T06:17:55.135Z,56.81
2023-08-29T06:18:55.068Z,47.43
2023-08-29T06:19:55.047Z,65.05
2023-08-29T06:20:55.105Z,52.13
2023-08-29T06:21:55.043Z,59.99
2023-08-29T06:22:55.058Z,62.68
2023-08-29T06:23:55.088Z,56.02
2023-08-29T06:24:55.014Z,60.24
2023-08-29T06:25:55.007Z,61.91
2023-08-29T06:26:54.999Z,60.57
2023-08-29T06:27:55.016Z,57.79
2023-08-29T06:28:54.981Z,56.88
2023-08-29T06:29:54.982Z,58.92
2023-08-29T06:30:55.006Z,60.67
2023-08-29T06:31:54.986Z,55.27
2023-08-29T06:32:55.054Z,58.28
2023-08-29T06:33:54.938Z,60.99
2023-08-29T06:34:54.930Z,49.27
2023-08-29T06:35:54.923Z,54.91
2023-08-29T06:36:54.972Z,64.44
2023-08-29T06:37:54.915Z,56.64
2023-08-29T06:38:54.912Z,55.46
2023-08-29T06:39:54.899Z,58.55
2023-08-29T06:40:54.891Z,62.90
2023-08-29T06:41:54.928Z,56.13
2023-08-29T06:42:54.876Z,58.92
2023-08-29T06:43:54.870Z,64.88
2023-08-29T06:44:54.906Z,69.59
2023-08-29T06:45:54.859Z,65.98
2023-08-29T06:46:54.871Z,60.52
2023-08-29T06:47:54.889Z,63.23
2023-08-29T06:48:54.832Z,64.10
2023-08-29T06:49:54.821Z,58.12
2023-08-29T06:50:54.810Z,60.85
2023-08-29T06:51:54.824Z,70.60
2023-08-29T06:52:54.793Z,61.22
2023-08-29T06:53:54.781Z,55.24
2023-08-29T06:54:54.773Z,59.45
2023-08-29T06:55:54.824Z,62.96
2023-08-29T06:56:54.782Z,57.40
2023-08-29T06:57:54.754Z,59.21
2023-08-29T06:58:54.746Z,63.50
2023-08-29T06:59:54.742Z,64.64
2023-08-29T07:00:54.833Z,58.31
2023-08-29T07:01:54.721Z,58.29
2023-08-29T07:02:54.821Z,63.58
2023-08-29T07:03:54.738Z,56.58
2023-08-29T07:04:54.705Z,57.54
2023-08-29T07:05:54.715Z,57.91
2023-08-29T07:06:54.679Z,65.59
2023-08-29T07:07:55.674Z,60.24
2023-08-29T07:08:54.658Z,59.49
2023-08-29T07:09:54.686Z,57.90
2023-08-29T07:10:54.675Z,62.98
2023-08-29T07:11:54.663Z,58.37
2023-08-29T07:12:54.641Z,51.87
2023-08-29T07:13:54.623Z,62.68
2023-08-29T07:14:54.664Z,54.94
2023-08-29T07:15:54.612Z,52.29
2023-08-29T07:17:56.655Z,59.97
2023-08-29T07:18:54.583Z,55.94
2023-08-29T07:19:54.616Z,62.35
2023-08-29T07:20:54.566Z,59.62
2023-08-29T07:21:54.761Z,58.46
2023-08-29T07:22:54.567Z,55.61
2023-08-29T07:23:54.578Z,59.74
2023-08-29T07:24:54.573Z,66.05
2023-08-29T07:25:54.540Z,56.44
2023-08-29T07:26:54.525Z,56.48
2023-08-29T07:27:54.518Z,60.54
2023-08-29T07:28:54.532Z,65.22
2023-08-29T07:29:54.504Z,58.10
2023-08-29T07:30:54.527Z,63.08
2023-08-29T07:31:54.510Z,55.86
2023-08-29T07:32:54.515Z,62.17
2023-08-29T07:33:54.496Z,67.57
2023-08-29T07:34:54.462Z,61.64
2023-08-29T07:35:54.458Z,61.97
2023-08-29T07:36:54.452Z,61.24
2023-08-29T07:37:54.446Z,53.25
2023-08-29T07:38:54.453Z,54.96
2023-08-29T07:39:54.421Z,63.62
2023-08-29T07:40:54.423Z,58.66
2023-08-29T07:41:54.417Z,55.98
2023-08-29T07:43:26.350Z,62.18
2023-08-29T07:43:54.392Z,52.75
2023-08-29T07:44:54.378Z,54.51
2023-08-29T07:45:54.463Z,66.99
2023-08-29T07:47:08.271Z,56.89
2023-08-29T07:47:56.461Z,56.61
2023-08-29T07:48:54.350Z,58.94
2023-08-29T07:49:54.381Z,64.42
2023-08-29T07:50:54.336Z,60.82
2023-08-29T07:51:54.329Z,62.80
2023-08-29T07:52:54.343Z,58.06
2023-08-29T07:53:54.338Z,56.78
2023-08-29T07:54:54.306Z,53.46
2023-08-29T07:55:54.298Z,61.40
2023-08-29T07:56:55.380Z,64.43
2023-08-29T07:57:54.304Z,59.99
2023-08-29T07:58:55.272Z,61.29
2023-08-29T07:59:54.266Z,61.69
2023-08-29T08:00:54.254Z,58.95
2023-08-29T08:01:54.350Z,52.73
2023-08-29T08:02:54.319Z,59.95
2023-08-29T08:03:54.262Z,59.72
2023-08-29T08:04:54.224Z,56.83
2023-08-29T08:05:54.218Z,61.41
2023-08-29T08:06:54.266Z,55.11
2023-08-29T08:07:54.199Z,57.14
2023-08-29T08:08:54.195Z,57.96
2023-08-29T08:09:54.186Z,58.99
2023-08-29T08:10:54.174Z,58.08
2023-08-29T08:11:54.207Z,58.94
2023-08-29T08:12:54.157Z,59.70
2023-08-29T08:13:54.157Z,61.17
2023-08-29T08:14:54.146Z,57.21
2023-08-29T08:15:54.197Z,56.02
2023-08-29T08:16:54.189Z,61.23
2023-08-29T08:17:54.154Z,57.96
2023-08-29T08:18:54.127Z,55.87
2023-08-29T08:19:54.109Z,57.76
2023-08-29T08:20:54.130Z,59.09
2023-08-29T08:21:54.094Z,60.91
2023-08-29T08:22:54.092Z,57.77
2023-08-29T08:23:54.078Z,63.58
2023-08-29T08:24:54.078Z,61.84
2023-08-29T08:25:54.092Z,55.59
2023-08-29T08:26:54.060Z,55.15
2023-08-29T08:27:54.049Z,63.15
2023-08-29T08:28:54.038Z,59.05
2023-08-29T08:29:54.034Z,66.57
2023-08-29T08:30:54.045Z,71.31
2023-08-29T08:31:54.014Z,70.50
2023-08-29T08:32:54.003Z,71.74
2023-08-29T08:33:54.005Z,80.93
2023-08-29T08:34:54.018Z,80.49
2023-08-29T08:35:57.491Z,78.07
2023-08-29T08:36:54.973Z,69.58
2023-08-29T08:37:53.971Z,71.27
2023-08-29T08:38:53.955Z,74.19
2023-08-29T08:39:53.980Z,79.21
2023-08-29T08:40:53.943Z,77.97
2023-08-29T08:41:54.009Z,73.65
2023-08-29T08:42:53.926Z,70.81
2023-08-29T08:43:53.964Z,70.38
2023-08-29T08:44:54.000Z,77.26
2023-08-29T08:45:53.929Z,77.04
2023-08-29T08:46:53.892Z,75.27
2023-08-29T08:47:53.921Z,70.66
2023-08-29T08:48:53.878Z,69.29
2023-08-29T08:49:53.899Z,70.24
2023-08-29T08:50:53.858Z,70.30
2023-08-29T08:51:53.857Z,70.32
2023-08-29T08:52:53.856Z,69.43
2023-08-29T08:53:53.837Z,69.86
2023-08-29T08:54:53.863Z,70.70
2023-08-29T08:55:53.821Z,71.92
2023-08-29T08:56:53.830Z,68.84
2023-08-29T08:57:53.805Z,69.49
2023-08-29T08:58:53.828Z,70.08
2023-08-29T08:59:53.792Z,69.56
2023-08-29T09:00:53.791Z,69.54
2023-08-29T09:01:53.801Z,69.81
2023-08-29T09:02:53.861Z,70.02
2023-08-29T09:03:53.818Z,69.49
2023-08-29T09:04:53.752Z,69.40
2023-08-29T09:05:53.749Z,69.91
2023-08-29T09:06:53.739Z,69.40
2023-08-29T09:07:53.762Z,69.31
2023-08-29T09:08:53.741Z,69.21
2023-08-29T09:09:53.713Z,69.77
2023-08-29T09:10:53.721Z,68.94
2023-08-29T09:11:53.717Z,67.99
2023-08-29T09:12:53.755Z,70.17
2023-08-29T09:13:53.681Z,69.65
2023-08-29T09:14:53.671Z,68.74
2023-08-29T09:15:53.770Z,68.08
2023-08-29T09:16:53.685Z,69.94
2023-08-29T09:17:53.701Z,69.02
2023-08-29T09:18:53.638Z,68.66
2023-08-29T09:19:53.696Z,68.14
2023-08-29T09:20:53.635Z,68.71
2023-08-29T09:21:53.657Z,66.80
2023-08-29T09:22:53.657Z,62.63
2023-08-29T09:23:53.659Z,65.07
2023-08-29T09:24:53.680Z,77.62
2023-08-29T09:25:53.617Z,77.70
2023-08-29T09:26:53.648Z,76.47
2023-08-29T09:27:53.587Z,67.37
2023-08-29T09:28:53.601Z,64.54
2023-08-29T09:29:53.563Z,64.00
2023-08-29T09:30:53.562Z,66.41
2023-08-29T09:31:53.599Z,65.51
2023-08-29T09:32:53.588Z,66.03
2023-08-29T09:33:53.557Z,66.16
2023-08-29T09:34:53.554Z,67.00
2023-08-29T09:35:53.513Z,66.47
2023-08-29T09:36:53.536Z,65.05
2023-08-29T09:37:53.690Z,65.80
2023-08-29T09:38:53.531Z,65.05
2023-08-29T09:39:53.509Z,67.10
2023-08-29T09:40:53.529Z,65.95
2023-08-29T09:41:53.507Z,66.02
2023-08-29T09:42:53.484Z,65.99
2023-08-29T09:43:53.455Z,66.37
2023-08-29T09:44:53.477Z,67.97
2023-08-29T09:45:53.674Z,68.10
2023-08-29T09:46:53.472Z,65.73
2023-08-29T09:47:53.477Z,65.74
2023-08-29T09:48:53.412Z,67.61
2023-08-29T09:49:53.403Z,66.45
2023-08-29T09:50:53.445Z,67.51
2023-08-29T09:51:53.470Z,66.00
2023-08-29T09:52:53.393Z,68.52
2023-08-29T09:53:53.436Z,68.93
2023-08-29T09:54:53.400Z,65.57
2023-08-29T09:55:53.411Z,65.87
2023-08-29T09:56:53.364Z,68.84
2023-08-29T09:57:53.403Z,67.11
2023-08-29T09:58:53.343Z,68.93
2023-08-29T09:59:53.343Z,73.49
2023-08-29T10:00:53.422Z,69.26
2023-08-29T10:01:53.319Z,66.35
2023-08-29T10:02:53.358Z,66.78
2023-08-29T10:03:53.305Z,65.61
2023-08-29T10:04:53.342Z,66.34
2023-08-29T10:05:53.339Z,66.02
2023-08-29T10:06:53.280Z,75.12
2023-08-29T10:07:53.268Z,68.02
2023-08-29T10:08:53.261Z,60.27
2023-08-29T10:09:53.274Z,59.83
2023-08-29T10:10:53.247Z,58.25
2023-08-29T10:11:55.335Z,64.75
2023-08-29T10:12:54.231Z,62.66
2023-08-29T10:13:53.259Z,58.92
2023-08-29T10:14:53.247Z,59.92
2023-08-29T10:15:53.289Z,64.65
2023-08-29T10:16:53.341Z,59.22
2023-08-29T10:17:53.260Z,56.41
2023-08-29T10:18:53.188Z,60.34
2023-08-29T10:19:53.214Z,68.05
2023-08-29T10:20:53.172Z,62.56
2023-08-29T10:21:53.165Z,63.12
2023-08-29T10:22:53.157Z,63.44
2023-08-29T10:23:53.175Z,66.01
2023-08-29T10:24:53.167Z,62.84
2023-08-29T10:25:53.134Z,59.06
2023-08-29T10:26:53.128Z,58.90
2023-08-29T10:27:53.122Z,66.49
2023-08-29T10:28:53.146Z,62.51
2023-08-29T10:29:53.102Z,61.81
2023-08-29T10:30:53.208Z,67.95
2023-08-29T10:31:53.087Z,62.37
2023-08-29T10:32:53.154Z,60.28
2023-08-29T10:33:53.091Z,64.37
2023-08-29T10:34:53.063Z,64.27
2023-08-29T10:35:53.062Z,64.22
2023-08-29T10:36:53.079Z,66.71
2023-08-29T10:37:53.086Z,62.99
2023-08-29T10:38:53.057Z,64.39
2023-08-29T10:39:53.037Z,64.02
2023-08-29T10:40:53.023Z,60.17
2023-08-29T10:41:53.019Z,60.82
2023-08-29T10:42:53.083Z,60.26
2023-08-29T10:43:52.994Z,64.72
2023-08-29T10:44:52.984Z,66.03
2023-08-29T10:45:53.983Z,62.56
2023-08-29T10:46:53.025Z,65.95
2023-08-29T10:47:53.011Z,56.34
2023-08-29T10:48:52.972Z,63.88
2023-08-29T10:49:52.942Z,66.79
2023-08-29T10:50:52.937Z,56.35
2023-08-29T10:51:52.927Z,56.63
2023-08-29T10:52:52.945Z,55.95
2023-08-29T10:53:53.003Z,65.07
2023-08-29T10:54:52.906Z,60.33
2023-08-29T10:55:52.914Z,57.48
2023-08-29T10:56:52.950Z,59.81
2023-08-29T10:57:52.967Z,64.48
2023-08-29T10:58:52.878Z,60.51
2023-08-29T10:59:52.865Z,62.55
2023-08-29T11:00:52.904Z,60.37
2023-08-29T11:01:52.902Z,63.96
2023-08-29T11:02:52.869Z,60.53
2023-08-29T11:03:52.981Z,60.81
2023-08-29T11:04:56.460Z,64.06
2023-08-29T11:05:53.871Z,62.46
2023-08-29T11:06:52.839Z,60.93
2023-08-29T11:07:52.805Z,54.26
2023-08-29T11:08:52.837Z,63.07
2023-08-29T11:09:52.789Z,64.80
2023-08-29T11:10:52.807Z,62.52
2023-08-29T11:11:52.801Z,65.13
2023-08-29T11:12:52.766Z,58.67
2023-08-29T11:13:52.753Z,64.34
2023-08-29T11:14:52.867Z,64.45
2023-08-29T11:15:52.767Z,60.33
2023-08-29T11:16:52.783Z,53.47
2023-08-29T11:17:52.738Z,60.14
2023-08-29T11:18:52.721Z,62.14
2023-08-29T11:19:52.714Z,62.36
2023-08-29T11:20:52.730Z,54.84
2023-08-29T11:21:52.692Z,54.65
2023-08-29T11:22:52.688Z,59.11
2023-08-29T11:24:05.564Z,65.27
2023-08-29T11:24:54.668Z,60.93
2023-08-29T11:25:52.692Z,56.87
2023-08-29T11:26:52.678Z,58.86
2023-08-29T11:27:52.645Z,62.17
2023-08-29T11:28:52.639Z,65.64
2023-08-29T11:29:58.276Z,63.41
2023-08-29T11:30:54.668Z,62.31
2023-08-29T11:31:52.613Z,56.09
2023-08-29T11:32:53.010Z,64.32
2023-08-29T11:33:52.602Z,65.18
2023-08-29T11:34:52.590Z,60.02
2023-08-29T11:35:52.603Z,60.83
2023-08-29T11:36:52.875Z,56.90
2023-08-29T11:37:52.577Z,64.73
2023-08-29T11:38:52.939Z,63.46
2023-08-29T11:39:53.585Z,59.38
2023-08-29T11:41:06.610Z,61.13
2023-08-29T11:42:20.009Z,55.10
2023-08-29T11:43:43.705Z,65.69
2023-08-29T11:44:30.897Z,62.13
2023-08-29T11:45:45.601Z,58.89
2023-08-29T11:45:57.632Z,58.40
2023-08-29T11:46:54.543Z,56.84
2023-08-29T11:47:53.552Z,60.15
2023-08-29T11:48:52.496Z,62.16
2023-08-29T11:49:52.498Z,60.26
2023-08-29T11:50:52.472Z,56.54
2023-08-29T11:51:52.466Z,50.70
2023-08-29T11:52:52.445Z,59.66
2023-08-29T11:53:52.465Z,52.31
2023-08-29T11:54:52.455Z,53.23
2023-08-29T11:55:52.422Z,58.38
2023-08-29T11:56:52.419Z,61.48
2023-08-29T11:57:52.410Z,48.59
2023-08-29T11:58:52.429Z,57.57
2023-08-29T11:59:52.430Z,62.02
2023-08-29T12:00:52.387Z,60.04
2023-08-29T12:01:52.395Z,51.73
2023-08-29T12:02:52.481Z,46.41
2023-08-29T12:03:52.425Z,56.12
2023-08-29T12:04:52.374Z,62.03
2023-08-29T12:05:52.351Z,59.35
2023-08-29T12:06:52.355Z,53.89
2023-08-29T12:07:52.354Z,55.08
2023-08-29T12:08:52.345Z,59.54
2023-08-29T12:09:52.313Z,62.68
2023-08-29T12:10:52.305Z,58.15
2023-08-29T12:11:52.301Z,56.93
2023-08-29T12:12:52.293Z,57.91
2023-08-29T12:13:52.316Z,62.37
2023-08-29T12:14:52.278Z,51.42
2023-08-29T12:15:52.263Z,55.59
2023-08-29T12:16:52.255Z,56.89
2023-08-29T12:17:52.282Z,60.91
2023-08-29T12:18:52.283Z,61.54
2023-08-29T12:19:52.237Z,59.78
2023-08-29T12:20:52.234Z,58.42
2023-08-29T12:21:52.219Z,60.01
2023-08-29T12:22:52.237Z,56.31
2023-08-29T12:23:52.240Z,60.81
2023-08-29T12:24:52.199Z,57.02
2023-08-29T12:25:52.192Z,54.26
2023-08-29T12:26:52.181Z,53.30
2023-08-29T12:27:52.198Z,56.62
2023-08-29T12:28:52.161Z,62.86
2023-08-29T12:29:52.165Z,63.49
2023-08-29T12:30:52.190Z,55.78
2023-08-29T12:31:52.143Z,58.36
2023-08-29T12:32:52.203Z,57.18
2023-08-29T12:33:52.127Z,62.56
2023-08-29T12:34:52.120Z,64.63
2023-08-29T12:35:52.101Z,56.51
2023-08-29T12:36:53.146Z,55.90
2023-08-29T12:37:52.124Z,56.46
2023-08-29T12:38:52.091Z,61.43
2023-08-29T12:39:52.083Z,62.91
2023-08-29T12:40:52.067Z,57.51
2023-08-29T12:41:52.114Z,57.98
2023-08-29T12:42:52.089Z,59.49
2023-08-29T12:43:52.045Z,62.69
2023-08-29T12:44:52.093Z,61.30
2023-08-29T12:45:59.105Z,60.62
2023-08-29T12:46:54.049Z,55.69
2023-08-29T12:47:52.158Z,53.80
2023-08-29T12:48:52.016Z,51.22
2023-08-29T12:49:52.005Z,61.34
2023-08-29T12:50:52.004Z,59.21
2023-08-29T12:51:52.022Z,57.93
2023-08-29T12:52:51.990Z,56.73
2023-08-29T12:53:51.977Z,53.18